Time;durP1;ratioP1;P1;durP2;ratioP2;P2;SDS_P1;SDS_P2;PMS_P1;PMS_P2;Temp;Humidity;BMP_temperature;BMP_pressure;BME280_temperature;BME280_humidity;BME280_pressure;Samples;Min_cycle;Max_cycle;Signal;HPM_P1;HPM_P2
2022/12/03 00:04:32;;;;;;;26.70;23.93;;;6.80;99.90;;;;;;10516364;28;20243;-79
2022/12/03 00:09:34;;;;;;;28.43;24.70;;;6.70;99.90;;;;;;10519142;28;20196;-80
2022/12/03 00:14:36;;;;;;;26.17;23.27;;;6.60;99.90;;;;;;10517389;28;20303;-80
2022/12/03 00:19:39;;;;;;;26.67;23.80;;;6.60;99.90;;;;;;10523238;28;20208;-80
2022/12/03 00:24:41;;;;;;;26.80;23.57;;;6.50;99.90;;;;;;10501432;28;20315;-82
2022/12/03 00:29:43;;;;;;;25.20;22.50;;;6.50;99.90;;;;;;10521037;28;20622;-81
2022/12/03 00:34:48;;;;;;;27.80;24.90;;;6.40;99.90;;;;;;10533123;28;20282;-80
2022/12/03 00:39:50;;;;;;;27.40;24.50;;;6.40;99.90;;;;;;10529984;28;20228;-81
2022/12/03 00:44:52;;;;;;;29.70;25.23;;;6.40;99.90;;;;;;10539738;28;20220;-81
2022/12/03 00:49:55;;;;;;;29.90;26.70;;;6.40;99.90;;;;;;10535339;28;20215;-79
2022/12/03 00:54:57;;;;;;;26.90;23.90;;;6.40;99.90;;;;;;10555045;28;20243;-80
2022/12/03 00:59:59;;;;;;;27.63;24.63;;;6.30;99.90;;;;;;10517799;28;20197;-81
2022/12/03 01:05:03;;;;;;;28.23;25.23;;;6.30;99.90;;;;;;10519895;28;20725;-79
2022/12/03 01:10:07;;;;;;;26.73;23.83;;;6.40;99.90;;;;;;10514116;28;20197;-80
2022/12/03 01:15:10;;;;;;;26.50;23.70;;;6.40;99.90;;;;;;10507687;28;20228;-81
2022/12/03 01:20:13;;;;;;;27.50;24.00;;;6.40;99.90;;;;;;10545517;28;20219;-80
2022/12/03 01:25:16;;;;;;;26.50;23.70;;;6.40;99.90;;;;;;10518993;28;20603;-80
2022/12/03 01:30:18;;;;;;;28.37;23.30;;;6.40;99.90;;;;;;10532141;28;20607;-79
2022/12/03 01:35:21;;;;;;;26.20;23.47;;;6.40;99.90;;;;;;10517552;28;20219;-79
2022/12/03 01:40:23;;;;;;;26.23;23.27;;;6.30;99.90;;;;;;10532064;28;20272;-80
2022/12/03 01:45:25;;;;;;;25.60;22.80;;;6.30;99.90;;;;;;10502366;28;20212;-80
2022/12/03 01:50:33;;;;;;;26.20;23.50;;;6.30;99.90;;;;;;10535540;28;20290;-81
2022/12/03 01:55:35;;;;;;;28.87;24.80;;;6.40;99.90;;;;;;10526762;28;20220;-80
2022/12/03 02:00:37;;;;;;;30.37;25.30;;;6.40;99.90;;;;;;10515013;28;20253;-79
2022/12/03 02:05:40;;;;;;;27.60;24.53;;;6.50;99.90;;;;;;10514837;28;20672;-80
2022/12/03 02:10:42;;;;;;;28.00;24.20;;;6.60;99.90;;;;;;10518816;28;20565;-81
2022/12/03 02:15:45;;;;;;;28.80;23.03;;;6.50;99.90;;;;;;10527192;28;20246;-81
2022/12/03 02:20:57;;;;;;;27.33;23.50;;;6.60;99.90;;;;;;10537388;28;20672;-81
2022/12/03 02:26:00;;;;;;;25.47;22.67;;;6.60;99.90;;;;;;10517856;28;20227;-81
2022/12/03 02:31:04;;;;;;;24.97;21.70;;;6.70;99.90;;;;;;10533163;28;20737;-80
2022/12/03 02:36:06;;;;;;;24.67;22.07;;;6.70;99.90;;;;;;10517431;28;20227;-81
2022/12/03 02:42:33;;;;;;;25.27;22.20;;;6.80;99.90;;;;;;10537738;28;20193;-81
2022/12/03 02:46:36;;;;;;;25.40;21.87;;;6.80;99.90;;;;;;10501709;28;20211;-81
2022/12/03 02:51:38;;;;;;;25.97;21.67;;;6.80;99.90;;;;;;10541663;28;20197;-80
2022/12/03 02:56:41;;;;;;;22.40;20.00;;;6.80;99.90;;;;;;10560820;28;20220;-80
2022/12/03 03:01:43;;;;;;;22.93;20.63;;;6.90;99.90;;;;;;10546383;28;20200;-80
2022/12/03 03:06:46;;;;;;;25.90;22.27;;;6.90;99.90;;;;;;10530411;28;20535;-81
2022/12/03 03:11:49;;;;;;;23.57;21.20;;;6.90;99.90;;;;;;10513727;28;20200;-81
2022/12/03 03:16:54;;;;;;;23.50;20.83;;;6.90;99.90;;;;;;10485471;28;20227;-78
2022/12/03 03:21:57;;;;;;;23.77;21.27;;;7.00;99.90;;;;;;10505385;28;20653;-78
2022/12/03 03:27:00;;;;;;;26.87;22.73;;;7.00;99.90;;;;;;10506182;28;20216;-78
2022/12/03 03:32:04;;;;;;;25.23;22.53;;;7.00;99.90;;;;;;10524243;28;20196;-79
2022/12/03 03:37:06;;;;;;;28.90;23.57;;;7.10;99.90;;;;;;10504570;28;20630;-79
2022/12/03 03:42:09;;;;;;;24.90;22.20;;;7.10;99.90;;;;;;10524284;28;20192;-79
2022/12/03 03:47:12;;;;;;;28.27;24.20;;;7.10;99.90;;;;;;10505334;28;20199;-79
2022/12/03 03:52:14;;;;;;;22.53;19.70;;;7.10;99.90;;;;;;10530540;28;20274;-78
2022/12/03 03:57:18;;;;;;;22.07;19.77;;;7.10;99.90;;;;;;10524613;28;20200;-79
2022/12/03 04:02:24;;;;;;;22.50;19.27;;;7.10;99.90;;;;;;10504213;28;20195;-79
2022/12/03 04:07:26;;;;;;;23.13;20.80;;;7.10;99.90;;;;;;10522827;28;20197;-79
2022/12/03 04:18:41;;;;;;;21.10;18.90;;;7.20;99.90;;;;;;10504204;28;20192;-79
2022/12/03 04:23:11;;;;;;;22.17;19.77;;;7.10;99.90;;;;;;10545480;22;20227;-77
2022/12/03 04:38:54;;;;;;;24.07;21.50;;;7.00;99.90;;;;;;10452640;28;20214;-76
2022/12/03 04:49:17;;;;;;;23.40;21.03;;;7.10;99.90;;;;;;10452255;28;20193;-78
2022/12/03 04:54:19;;;;;;;23.47;20.97;;;7.10;99.90;;;;;;10467278;28;20317;-80
2022/12/03 04:59:23;;;;;;;24.47;21.20;;;7.10;99.90;;;;;;10450737;28;20197;-77
2022/12/03 05:04:25;;;;;;;24.53;21.93;;;7.10;99.90;;;;;;10452019;28;20217;-77
2022/12/03 05:09:27;;;;;;;23.83;20.17;;;7.20;99.90;;;;;;10451700;28;20194;-77
2022/12/03 05:14:30;;;;;;;24.47;21.33;;;7.20;99.90;;;;;;10449754;28;20597;-77
2022/12/03 05:24:52;;;;;;;24.20;21.60;;;7.20;99.90;;;;;;10458789;28;20271;-77
2022/12/03 05:29:55;;;;;;;25.50;21.03;;;7.20;99.90;;;;;;10458217;28;20572;-77
2022/12/03 05:34:57;;;;;;;25.00;22.40;;;7.20;99.90;;;;;;10458387;28;20221;-77
2022/12/03 05:39:59;;;;;;;23.50;21.00;;;7.20;99.90;;;;;;10458266;28;20225;-78
2022/12/03 05:45:03;;;;;;;24.77;22.10;;;7.20;99.90;;;;;;10459812;28;20685;-77
2022/12/03 05:50:06;;;;;;;23.90;21.40;;;7.20;99.90;;;;;;10458051;28;20233;-77
2022/12/03 05:55:09;;;;;;;24.80;22.10;;;7.20;99.90;;;;;;10472810;28;20632;-77
2022/12/03 06:00:15;;;;;;;23.43;20.40;;;7.20;99.90;;;;;;10456172;28;20228;-77
2022/12/03 06:05:19;;;;;;;23.97;21.30;;;7.20;99.90;;;;;;10457039;28;20210;-77
2022/12/03 06:10:24;;;;;;;22.90;20.47;;;7.20;99.90;;;;;;10455955;28;20201;-77
2022/12/03 06:15:30;;;;;;;23.47;20.97;;;7.20;99.90;;;;;;10456314;28;20236;-77
2022/12/03 06:20:32;;;;;;;24.53;21.93;;;7.10;99.90;;;;;;10457640;28;20208;-76
2022/12/03 06:25:34;;;;;;;23.60;21.10;;;7.10;99.90;;;;;;10456775;28;20245;-77
2022/12/03 06:30:38;;;;;;;23.50;21.00;;;7.10;99.90;;;;;;10456934;28;20197;-77
2022/12/03 06:35:45;;;;;;;23.40;20.77;;;7.10;99.90;;;;;;10457093;28;20223;-78
2022/12/03 06:40:49;;;;;;;24.00;21.43;;;7.10;99.90;;;;;;10474083;28;20628;-78
2022/12/03 06:45:54;;;;;;;27.20;22.43;;;7.10;99.90;;;;;;10457079;28;20296;-77
2022/12/03 06:50:56;;;;;;;25.50;22.30;;;7.20;99.90;;;;;;10456020;28;20235;-77
2022/12/03 06:56:00;;;;;;;24.83;22.13;;;7.20;99.90;;;;;;10457478;28;20219;-77
2022/12/03 07:01:03;;;;;;;27.00;22.97;;;7.20;99.90;;;;;;10457019;28;20204;-77
2022/12/03 07:06:06;;;;;;;26.13;23.17;;;7.30;99.90;;;;;;10458195;28;20255;-77
2022/12/03 07:11:29;;;;;;;25.60;22.73;;;7.30;99.90;;;;;;10458401;28;20189;-77
2022/12/03 07:16:34;;;;;;;28.30;23.43;;;7.30;99.90;;;;;;10456670;28;20240;-77
2022/12/03 07:21:36;;;;;;;24.63;21.77;;;7.30;99.90;;;;;;10471406;28;20247;-78
2022/12/03 07:26:38;;;;;;;24.17;21.70;;;7.30;99.90;;;;;;10453672;28;20288;-77
2022/12/03 07:31:41;;;;;;;23.77;21.27;;;7.30;99.90;;;;;;10468815;28;20279;-77
2022/12/03 07:36:47;;;;;;;25.60;21.90;;;7.30;99.90;;;;;;10451959;28;20312;-77
2022/12/03 07:41:49;;;;;;;24.97;21.20;;;7.40;99.90;;;;;;10453159;28;20765;-76
2022/12/03 07:46:52;;;;;;;27.50;23.57;;;7.40;99.90;;;;;;10453367;28;20252;-77
2022/12/03 07:51:55;;;;;;;27.37;23.23;;;7.40;99.90;;;;;;10453323;28;20205;-77
2022/12/03 07:56:57;;;;;;;30.73;24.90;;;7.40;99.90;;;;;;10451777;28;20677;-77
2022/12/03 08:02:01;;;;;;;27.93;23.80;;;7.40;99.90;;;;;;10452917;28;20197;-77
2022/12/03 08:07:03;;;;;;;30.73;23.97;;;7.40;99.90;;;;;;10451779;28;20684;-78
2022/12/03 08:12:15;;;;;;;27.73;24.67;;;7.40;99.90;;;;;;10454745;28;20352;-78
2022/12/03 08:17:20;;;;;;;30.27;24.50;;;7.40;99.90;;;;;;10452533;28;20224;-79
2022/12/03 08:22:22;;;;;;;29.90;23.83;;;7.40;99.90;;;;;;10451763;28;20197;-78
2022/12/03 08:27:24;;;;;;;28.07;23.77;;;7.40;99.90;;;;;;10452704;28;20227;-78
2022/12/03 08:32:27;;;;;;;30.33;24.50;;;7.40;99.90;;;;;;10453071;28;20193;-78
2022/12/03 08:37:30;;;;;;;30.83;25.00;;;7.40;99.90;;;;;;10453012;28;20221;-79
2022/12/03 08:42:42;;;;;;;33.30;26.43;;;7.40;99.90;;;;;;10454527;28;20243;-78
2022/12/03 08:47:46;;;;;;;29.50;25.27;;;7.30;99.90;;;;;;10454069;28;20224;-77
2022/12/03 08:52:48;;;;;;;29.47;25.13;;;7.30;99.90;;;;;;10454380;28;20235;-77
2022/12/03 08:57:50;;;;;;;27.13;23.27;;;7.30;99.90;;;;;;10461161;28;20346;-77
2022/12/03 09:02:59;;;;;;;33.20;27.10;;;7.30;99.90;;;;;;10477108;28;20324;-77
2022/12/03 09:08:01;;;;;;;31.43;24.97;;;7.40;99.90;;;;;;10460980;28;20229;-78
2022/12/03 09:13:03;;;;;;;32.57;25.33;;;7.40;99.90;;;;;;10461119;28;20684;-78
2022/12/03 09:18:09;;;;;;;35.47;27.63;;;7.30;99.90;;;;;;10463679;28;20200;-79
2022/12/03 09:23:11;;;;;;;28.00;23.60;;;7.20;99.90;;;;;;10444812;28;20758;-79
2022/12/03 09:28:13;;;;;;;36.20;27.63;;;7.10;99.90;;;;;;10462333;28;20664;-78
2022/12/03 09:33:16;;;;;;;31.47;23.43;;;7.10;99.90;;;;;;10462815;28;20224;-79
2022/12/03 09:38:18;;;;;;;30.73;25.00;;;7.10;99.90;;;;;;10460732;28;20614;-78
2022/12/03 09:43:21;;;;;;;28.80;24.00;;;7.00;99.90;;;;;;10459885;28;20502;-76
2022/12/03 09:48:24;;;;;;;30.50;24.40;;;7.00;99.90;;;;;;10460098;28;20633;-77
2022/12/03 09:53:27;;;;;;;30.20;24.77;;;7.00;99.90;;;;;;10459576;28;20220;-77
2022/12/03 09:58:30;;;;;;;26.63;22.07;;;7.10;99.90;;;;;;10458724;28;20559;-79
2022/12/03 10:03:33;;;;;;;26.50;21.80;;;7.10;99.90;;;;;;10461061;28;20300;-80
2022/12/03 10:08:35;;;;;;;27.63;22.50;;;7.20;99.90;;;;;;10442627;28;20262;-79
2022/12/03 10:13:37;;;;;;;22.33;19.53;;;7.30;99.90;;;;;;10461639;28;20229;-79
2022/12/03 10:18:44;;;;;;;24.23;21.10;;;7.40;99.90;;;;;;10464001;28;20562;-80
2022/12/03 10:23:46;;;;;;;22.17;19.40;;;7.30;99.90;;;;;;10515526;22;20215;-81
2022/12/03 10:28:50;;;;;;;23.73;19.50;;;7.40;99.90;;;;;;10528777;28;20196;-80
2022/12/03 10:33:58;;;;;;;23.93;21.20;;;7.40;99.90;;;;;;10545980;28;20204;-83
2022/12/03 10:39:09;;;;;;;24.73;22.03;;;7.40;99.90;;;;;;10533164;28;20197;-80
2022/12/03 10:44:16;;;;;;;25.40;21.40;;;7.40;99.90;;;;;;10515791;28;20298;-80
2022/12/03 10:49:20;;;;;;;23.93;20.83;;;7.40;99.90;;;;;;10526311;28;20334;-81
2022/12/03 10:54:24;;;;;;;25.90;21.40;;;7.30;99.90;;;;;;10517967;28;20205;-82
2022/12/03 10:59:31;;;;;;;22.20;19.80;;;7.30;99.90;;;;;;10526765;28;20216;-80
2022/12/03 11:04:36;;;;;;;24.87;20.70;;;7.20;99.90;;;;;;10515909;28;20471;-83
2022/12/03 11:09:38;;;;;;;25.10;21.43;;;7.20;99.90;;;;;;10543163;28;20196;-77
2022/12/03 11:15:05;;;;;;;27.50;23.03;;;7.20;99.90;;;;;;10527044;28;20242;-83
2022/12/03 11:20:13;;;;;;;27.70;23.80;;;7.20;99.90;;;;;;10545720;28;20226;-78
2022/12/03 11:25:46;;;;;;;22.73;20.13;;;7.10;99.90;;;;;;10545018;28;20216;-81
2022/12/03 11:31:01;;;;;;;25.30;20.07;;;7.10;99.90;;;;;;10551671;28;20220;-80
2022/12/03 11:36:16;;;;;;;23.33;19.30;;;7.00;99.90;;;;;;10549697;28;20644;-83
2022/12/03 11:41:20;;;;;;;25.20;20.83;;;7.00;99.90;;;;;;10517968;28;20193;-80
2022/12/03 11:46:25;;;;;;;23.47;19.60;;;7.00;99.90;;;;;;10521244;28;20358;-83
2022/12/03 11:51:30;;;;;;;23.47;20.00;;;7.10;99.90;;;;;;10520688;28;20205;-81
2022/12/03 11:56:32;;;;;;;20.70;17.23;;;7.10;99.90;;;;;;10517605;28;20212;-82
2022/12/03 12:01:36;;;;;;;24.37;19.90;;;7.10;99.90;;;;;;10500815;28;20438;-79
2022/12/03 12:06:44;;;;;;;22.13;18.53;;;7.10;99.90;;;;;;10499359;28;20254;-79
2022/12/03 12:11:46;;;;;;;22.90;19.80;;;7.10;99.90;;;;;;10517495;28;20550;-80
2022/12/03 12:16:50;;;;;;;23.13;18.80;;;7.10;99.90;;;;;;10517942;28;20745;-80
2022/12/03 12:21:54;;;;;;;21.03;16.90;;;7.10;99.90;;;;;;10513838;28;20196;-80
2022/12/03 12:26:58;;;;;;;21.10;17.90;;;7.20;99.90;;;;;;10516099;28;20291;-81
2022/12/03 12:32:10;;;;;;;23.20;19.03;;;7.20;99.90;;;;;;10529077;28;20199;-80
2022/12/03 12:37:19;;;;;;;20.77;16.70;;;7.30;99.90;;;;;;10512411;28;20220;-80
2022/12/03 12:42:43;;;;;;;20.10;17.50;;;7.30;99.90;;;;;;10523651;28;20322;-80
2022/12/03 12:48:05;;;;;;;21.67;17.97;;;7.30;99.90;;;;;;10512529;28;20312;-80
2022/12/03 12:53:16;;;;;;;20.10;17.50;;;7.30;99.90;;;;;;10526752;28;20215;-79
2022/12/03 12:58:19;;;;;;;22.27;16.80;;;7.30;99.90;;;;;;10513687;28;20599;-82
2022/12/03 13:03:25;;;;;;;21.70;17.70;;;7.30;99.90;;;;;;10525721;28;20219;-80
2022/12/03 13:08:31;;;;;;;20.47;17.10;;;7.30;99.90;;;;;;10513884;28;20197;-79
2022/12/03 13:13:38;;;;;;;20.23;17.13;;;7.30;99.90;;;;;;10517104;28;20216;-79
2022/12/03 13:18:43;;;;;;;19.33;15.93;;;7.30;99.90;;;;;;10535645;28;20184;-78
2022/12/03 13:23:47;;;;;;;21.00;17.57;;;7.30;99.90;;;;;;10521549;28;20710;-78
2022/12/03 13:28:50;;;;;;;21.93;18.80;;;7.20;99.90;;;;;;10500875;28;20212;-82
2022/12/03 13:33:52;;;;;;;22.67;18.10;;;7.20;99.90;;;;;;10514678;28;20224;-79
2022/12/03 13:38:56;;;;;;;27.00;20.67;;;7.10;99.90;;;;;;10519359;28;20188;-78
2022/12/03 13:43:59;;;;;;;25.07;19.10;;;7.10;99.90;;;;;;10530204;28;20247;-82
2022/12/03 13:49:01;;;;;;;25.10;19.40;;;7.00;99.90;;;;;;10518232;28;20246;-78
2022/12/03 13:54:08;;;;;;;24.37;18.43;;;6.90;99.90;;;;;;10504910;28;20552;-80
2022/12/03 13:59:11;;;;;;;22.20;17.70;;;6.90;99.90;;;;;;10531804;28;20222;-78
2022/12/03 14:04:13;;;;;;;23.93;18.53;;;6.90;99.90;;;;;;10547188;28;20225;-80
2022/12/03 14:09:17;;;;;;;25.43;19.57;;;6.80;99.90;;;;;;10524830;28;20196;-80
2022/12/03 14:14:19;;;;;;;23.37;17.43;;;6.80;99.90;;;;;;10510084;28;20266;-82
2022/12/03 14:19:21;;;;;;;22.43;17.57;;;6.80;99.90;;;;;;10502794;28;20196;-80
2022/12/03 14:24:24;;;;;;;22.40;17.50;;;6.70;99.90;;;;;;10527705;28;20303;-80
2022/12/03 14:29:27;;;;;;;20.80;17.73;;;6.60;99.90;;;;;;10517043;28;20224;-81
2022/12/03 14:34:29;;;;;;;24.40;18.77;;;6.60;99.90;;;;;;10527378;28;20212;-80
2022/12/03 14:39:32;;;;;;;22.77;18.13;;;6.70;99.90;;;;;;10519419;28;20189;-81
2022/12/03 14:44:34;;;;;;;28.97;20.60;;;6.70;99.90;;;;;;10504104;28;20216;-80
2022/12/03 14:49:37;;;;;;;22.40;18.57;;;6.70;99.90;;;;;;10525739;28;20333;-79
2022/12/03 14:54:40;;;;;;;24.90;18.77;;;6.70;99.90;;;;;;10537554;28;20215;-80
2022/12/03 14:59:44;;;;;;;23.47;18.57;;;6.70;99.90;;;;;;10518255;28;20571;-80
2022/12/03 15:04:46;;;;;;;22.17;17.87;;;6.70;99.90;;;;;;10521939;28;20675;-81
2022/12/03 15:09:50;;;;;;;21.80;17.37;;;6.70;99.90;;;;;;10520032;28;20257;-79
2022/12/03 15:14:52;;;;;;;22.40;17.10;;;6.60;99.90;;;;;;10523278;28;20225;-80
2022/12/03 15:19:54;;;;;;;21.20;18.20;;;6.50;99.90;;;;;;10520569;28;20201;-81
2022/12/03 15:24:57;;;;;;;20.50;16.70;;;6.40;99.90;;;;;;10521976;28;20219;-80
2022/12/03 15:29:59;;;;;;;22.07;17.63;;;6.40;99.90;;;;;;10519310;28;20558;-79
2022/12/03 15:35:01;;;;;;;23.30;17.40;;;6.40;99.90;;;;;;10520843;28;20265;-80
2022/12/03 15:40:06;;;;;;;23.83;17.70;;;6.40;99.90;;;;;;10523086;28;20682;-79
2022/12/03 15:45:09;;;;;;;23.60;18.30;;;6.40;99.90;;;;;;10510800;28;20310;-80
2022/12/03 15:50:12;;;;;;;24.10;18.20;;;6.40;99.90;;;;;;10519428;28;20223;-80
2022/12/03 15:55:16;;;;;;;18.60;16.13;;;6.50;99.90;;;;;;10508626;28;20251;-80
2022/12/03 16:00:19;;;;;;;20.57;16.67;;;6.50;99.90;;;;;;10476795;28;20280;-80
2022/12/03 16:05:21;;;;;;;17.17;15.23;;;6.40;99.90;;;;;;10476858;28;20629;-80
2022/12/03 16:10:24;;;;;;;18.93;15.73;;;6.40;99.90;;;;;;10486678;28;20615;-80
2022/12/03 16:15:42;;;;;;;20.10;14.90;;;6.40;99.90;;;;;;10460479;28;20263;-79
2022/12/03 16:20:44;;;;;;;20.07;16.20;;;6.20;99.90;;;;;;10480923;28;20201;-81
2022/12/03 16:25:47;;;;;;;18.37;15.77;;;6.20;99.90;;;;;;10495157;28;20212;-81
2022/12/03 16:30:49;;;;;;;17.70;14.97;;;6.20;99.90;;;;;;10508724;28;20204;-81
2022/12/03 16:35:51;;;;;;;18.87;16.30;;;6.10;99.90;;;;;;10536824;28;20427;-79
2022/12/03 16:40:55;;;;;;;20.80;16.10;;;6.10;99.90;;;;;;10520764;28;20188;-81
2022/12/03 16:46:19;;;;;;;19.40;16.63;;;6.00;99.90;;;;;;10487020;28;20243;-81
2022/12/03 16:51:21;;;;;;;19.67;17.57;;;5.90;99.90;;;;;;10475391;28;20233;-79
2022/12/03 16:56:25;;;;;;;21.87;18.60;;;5.90;99.90;;;;;;10484712;28;20220;-79
2022/12/03 17:01:27;;;;;;;22.73;18.70;;;6.00;99.90;;;;;;10509307;28;20198;-82
2022/12/03 17:06:29;;;;;;;22.60;18.80;;;6.10;99.90;;;;;;10484116;28;20205;-79
2022/12/03 17:11:32;;;;;;;23.97;18.67;;;6.10;99.90;;;;;;10499696;28;20211;-81
2022/12/03 17:16:35;;;;;;;20.23;17.23;;;6.20;99.90;;;;;;10496694;28;20220;-82
2022/12/03 17:21:37;;;;;;;24.30;19.30;;;6.20;99.90;;;;;;10501509;28;20197;-81
2022/12/03 17:26:40;;;;;;;19.93;17.83;;;6.30;99.90;;;;;;10481091;28;20281;-80
2022/12/03 17:31:42;;;;;;;24.00;19.10;;;6.30;99.90;;;;;;10527068;28;20188;-80
2022/12/03 17:36:45;;;;;;;19.97;17.50;;;6.30;99.90;;;;;;10533447;28;20220;-80
2022/12/03 17:41:48;;;;;;;19.50;17.17;;;6.30;99.90;;;;;;10531854;28;20242;-80
2022/12/03 17:46:50;;;;;;;19.57;17.47;;;6.30;99.90;;;;;;10510812;28;20612;-80
2022/12/03 17:51:52;;;;;;;20.67;18.37;;;6.40;99.90;;;;;;10531391;28;20223;-80
2022/12/03 17:56:56;;;;;;;22.63;18.83;;;6.40;99.90;;;;;;10525147;28;20213;-80
2022/12/03 18:01:58;;;;;;;24.83;19.47;;;6.40;99.90;;;;;;10501026;28;20196;-80
2022/12/03 18:07:00;;;;;;;24.60;20.13;;;6.30;99.90;;;;;;10502545;28;20213;-80
2022/12/03 18:12:03;;;;;;;23.13;19.63;;;6.30;99.90;;;;;;10519967;28;20196;-80
2022/12/03 18:17:05;;;;;;;22.07;18.80;;;6.30;99.90;;;;;;10515793;28;20239;-81
2022/12/03 18:22:07;;;;;;;22.40;20.00;;;6.40;99.90;;;;;;10526593;28;20624;-81
2022/12/03 18:27:11;;;;;;;23.40;19.07;;;6.40;99.90;;;;;;10514616;28;20269;-81
2022/12/03 18:32:13;;;;;;;22.47;19.10;;;6.40;99.90;;;;;;10512392;28;20222;-81
2022/12/03 18:37:16;;;;;;;21.37;18.00;;;6.50;99.90;;;;;;10496667;28;20212;-81
2022/12/03 18:42:21;;;;;;;21.23;16.70;;;6.50;99.90;;;;;;10479329;28;20640;-81
2022/12/03 18:47:26;;;;;;;19.03;16.60;;;6.50;99.90;;;;;;10471133;28;20255;-81
2022/12/03 18:52:28;;;;;;;22.20;18.07;;;6.50;99.90;;;;;;10501144;28;20676;-81
2022/12/03 18:57:32;;;;;;;20.30;16.57;;;6.40;99.90;;;;;;10518492;28;20215;-81
2022/12/03 19:02:34;;;;;;;19.77;17.10;;;6.40;99.90;;;;;;10527769;28;20196;-82
2022/12/03 19:13:30;;;;;;;20.63;16.03;;;6.50;99.90;;;;;;10529104;28;20259;-83
2022/12/03 19:18:43;;;;;;;20.20;16.53;;;6.50;99.90;;;;;;10522454;28;20219;-83
2022/12/03 19:29:22;;;;;;;24.13;17.80;;;6.40;99.90;;;;;;10506597;28;20252;-82
2022/12/03 19:34:27;;;;;;;20.70;17.60;;;6.50;99.90;;;;;;10518689;28;20239;-83
2022/12/03 19:39:42;;;;;;;22.13;17.63;;;6.50;99.90;;;;;;10531766;28;20212;-83
2022/12/03 19:44:48;;;;;;;20.87;18.50;;;6.50;99.90;;;;;;10521293;28;20220;-81
2022/12/03 19:49:52;;;;;;;24.60;17.50;;;6.50;99.90;;;;;;10532542;28;20192;-83
2022/12/03 19:54:56;;;;;;;23.83;16.67;;;6.40;99.90;;;;;;10522585;28;20220;-81
2022/12/03 20:00:04;;;;;;;21.50;17.67;;;6.30;99.90;;;;;;10511868;28;20548;-82
2022/12/03 20:11:10;;;;;;;21.83;18.13;;;6.30;99.90;;;;;;10531668;28;20287;-80
2022/12/03 20:16:19;;;;;;;23.97;18.87;;;6.30;99.90;;;;;;10703662;22;20233;-81
2022/12/03 20:21:31;;;;;;;22.30;18.13;;;6.30;99.90;;;;;;10437188;28;20209;-82
2022/12/03 20:26:36;;;;;;;25.27;18.97;;;6.30;99.90;;;;;;10421501;28;20214;-81
2022/12/03 20:31:45;;;;;;;19.07;16.87;;;6.30;99.90;;;;;;10390929;28;20178;-79
2022/12/03 20:48:01;;;;;;;23.30;18.90;;;6.40;99.90;;;;;;10412678;28;20653;-81
2022/12/03 20:53:06;;;;;;;22.23;18.27;;;6.40;99.90;;;;;;10373006;28;20202;-81
2022/12/03 20:58:11;;;;;;;23.27;19.87;;;6.50;99.90;;;;;;10432112;28;20226;-81
2022/12/03 21:03:15;;;;;;;23.37;20.73;;;6.40;99.90;;;;;;10393164;28;20671;-81
2022/12/03 21:08:17;;;;;;;24.77;22.10;;;6.40;99.90;;;;;;10411597;28;20198;-79
2022/12/03 21:13:19;;;;;;;25.53;22.70;;;6.40;99.90;;;;;;10415394;28;20286;-80
2022/12/03 21:18:23;;;;;;;27.57;24.47;;;6.40;99.90;;;;;;10421019;28;20229;-80
2022/12/03 21:23:25;;;;;;;29.83;25.67;;;6.40;99.90;;;;;;10422283;28;20213;-81
2022/12/03 21:28:27;;;;;;;31.00;25.33;;;6.40;99.90;;;;;;10422867;28;20198;-80
2022/12/03 21:33:31;;;;;;;30.57;25.53;;;6.40;99.90;;;;;;10423425;28;20230;-80
2022/12/03 21:38:35;;;;;;;31.93;26.30;;;6.40;99.90;;;;;;10420097;28;20217;-80
2022/12/03 21:43:37;;;;;;;32.00;26.97;;;6.40;99.90;;;;;;10421724;28;20222;-80
2022/12/03 21:48:40;;;;;;;30.47;26.60;;;6.40;99.90;;;;;;10421282;28;20198;-79
2022/12/03 21:53:43;;;;;;;29.03;25.77;;;6.40;99.90;;;;;;10413676;28;20229;-79
2022/12/03 21:58:46;;;;;;;30.83;26.37;;;6.40;99.90;;;;;;10421797;28;20214;-81
2022/12/03 22:03:50;;;;;;;31.40;25.40;;;6.40;99.90;;;;;;10418684;28;20261;-83
2022/12/03 22:08:53;;;;;;;28.50;25.17;;;6.50;99.90;;;;;;10421258;28;20244;-80
2022/12/03 22:13:56;;;;;;;32.53;26.30;;;6.50;99.90;;;;;;10420296;28;20237;-79
2022/12/03 22:18:59;;;;;;;33.07;26.43;;;6.50;99.90;;;;;;10407203;28;20222;-81
2022/12/03 22:24:02;;;;;;;25.40;22.70;;;6.50;99.90;;;;;;10421209;28;20224;-83
2022/12/03 22:29:04;;;;;;;27.07;23.70;;;6.50;99.90;;;;;;10420666;28;20190;-83
2022/12/03 22:34:08;;;;;;;29.83;26.10;;;6.50;99.90;;;;;;10417559;28;20317;-81
2022/12/03 22:39:10;;;;;;;31.60;25.40;;;6.50;99.90;;;;;;10409592;28;20232;-81
2022/12/03 22:44:13;;;;;;;30.37;25.27;;;6.50;99.90;;;;;;10399444;28;20253;-82
2022/12/03 22:49:16;;;;;;;29.77;24.83;;;6.50;99.90;;;;;;10421104;28;20217;-83
2022/12/03 22:54:18;;;;;;;29.40;24.80;;;6.50;99.90;;;;;;10413602;28;20224;-83
2022/12/03 22:59:20;;;;;;;31.70;25.40;;;6.50;99.90;;;;;;10420288;28;20233;-82
2022/12/03 23:04:24;;;;;;;30.77;26.37;;;6.50;99.90;;;;;;10410820;28;20229;-83
2022/12/03 23:09:26;;;;;;;30.43;27.23;;;6.40;99.90;;;;;;10420688;28;20228;-81
2022/12/03 23:14:28;;;;;;;29.20;25.00;;;6.50;99.90;;;;;;10418649;28;20582;-84
2022/12/03 23:19:31;;;;;;;33.00;28.40;;;6.40;99.90;;;;;;10422806;28;20275;-83
2022/12/03 23:24:33;;;;;;;28.67;25.53;;;6.40;99.90;;;;;;10386802;28;20224;-83
2022/12/03 23:29:35;;;;;;;28.50;25.40;;;6.40;99.90;;;;;;10401374;28;20202;-83
2022/12/03 23:34:38;;;;;;;28.00;24.07;;;6.40;99.90;;;;;;10411056;28;20241;-82
2022/12/03 23:39:41;;;;;;;27.53;24.07;;;6.50;99.90;;;;;;10426339;28;20222;-82
2022/12/03 23:44:43;;;;;;;28.47;24.20;;;6.50;99.90;;;;;;10397842;28;20285;-82
2022/12/03 23:49:46;;;;;;;23.80;20.77;;;6.50;99.90;;;;;;10414141;28;20224;-83
2022/12/03 23:54:48;;;;;;;28.47;23.87;;;6.40;99.90;;;;;;10422532;28;20728;-81
2022/12/03 23:59:50;;;;;;;24.40;21.80;;;6.50;99.90;;;;;;10400312;28;20218;-82
